createdAt,value
2022-12-19T00:01:35.918Z,36.03
2022-12-19T00:04:08.352Z,36.23
2022-12-19T00:06:36.228Z,42.47
2022-12-19T00:09:03.430Z,37.47
2022-12-19T00:11:30.366Z,47.50
2022-12-19T00:13:57.500Z,40.63
2022-12-19T00:16:25.881Z,38.73
2022-12-19T00:18:55.276Z,39.57
2022-12-19T00:21:23.983Z,41.10
2022-12-19T00:23:53.304Z,39.73
2022-12-19T00:26:20.908Z,41.70
2022-12-19T00:28:50.013Z,40.33
2022-12-19T00:31:17.259Z,39.60
2022-12-19T00:33:44.144Z,36.43
2022-12-19T00:36:12.626Z,38.97
2022-12-19T00:38:39.373Z,40.83
2022-12-19T00:41:08.525Z,37.00
2022-12-19T00:43:35.276Z,37.60
2022-12-19T00:46:03.996Z,41.83
2022-12-19T00:48:31.534Z,36.33
2022-12-19T00:51:06.723Z,35.83
2022-12-19T00:53:34.270Z,40.53
2022-12-19T00:56:05.563Z,40.00
2022-12-19T00:58:35.711Z,34.60
2022-12-19T01:01:09.307Z,40.03
2022-12-19T01:03:36.306Z,39.20
2022-12-19T01:06:03.610Z,40.00
2022-12-19T01:08:30.352Z,37.40
2022-12-19T01:10:58.094Z,38.37
2022-12-19T01:13:25.530Z,37.03
2022-12-19T01:15:52.282Z,32.77
2022-12-19T01:18:19.042Z,43.13
2022-12-19T01:20:48.861Z,41.83
2022-12-19T01:23:18.273Z,38.13
2022-12-19T01:25:51.257Z,34.80
2022-12-19T01:28:20.109Z,40.50
2022-12-19T01:30:50.860Z,42.83
2022-12-19T01:33:21.602Z,36.07
2022-12-19T01:35:50.606Z,44.77
2022-12-19T01:38:21.014Z,38.47
2022-12-19T01:40:56.179Z,43.20
2022-12-19T01:43:23.699Z,41.97
2022-12-19T01:45:54.701Z,43.03
2022-12-19T01:48:26.612Z,47.47
2022-12-19T01:51:01.714Z,43.37
2022-12-19T01:53:48.989Z,45.97
2022-12-19T01:56:16.665Z,47.10
2022-12-19T01:58:47.804Z,49.47
2022-12-19T02:01:15.424Z,48.00
2022-12-19T02:03:42.190Z,53.73
2022-12-19T02:06:11.473Z,48.60
2022-12-19T02:08:40.704Z,52.20
2022-12-19T02:11:07.440Z,50.13
2022-12-19T02:13:34.242Z,45.03
2022-12-19T02:16:29.034Z,44.03
2022-12-19T02:19:24.006Z,42.90
2022-12-19T02:22:02.116Z,42.83
2022-12-19T02:24:40.288Z,46.97
2022-12-19T02:27:24.977Z,42.63
2022-12-19T02:30:10.497Z,43.97
2022-12-19T02:32:43.354Z,40.47
2022-12-19T02:35:42.663Z,45.27
2022-12-19T02:38:15.493Z,42.40
2022-12-19T02:41:03.170Z,42.53
2022-12-19T02:43:30.911Z,44.60
2022-12-19T02:45:57.704Z,43.93
2022-12-19T02:48:24.571Z,42.67
2022-12-19T02:50:51.339Z,43.47
2022-12-19T02:53:22.322Z,43.03
2022-12-19T02:56:10.490Z,42.87
2022-12-19T02:58:57.873Z,44.67
2022-12-19T03:01:31.812Z,49.93
2022-12-19T03:04:31.193Z,42.83
2022-12-19T03:07:03.879Z,45.20
2022-12-19T03:09:49.037Z,44.20
2022-12-19T03:12:21.631Z,47.90
2022-12-19T03:14:48.352Z,45.50
2022-12-19T03:17:15.087Z,48.63
2022-12-19T03:19:44.286Z,45.50
2022-12-19T03:22:11.126Z,43.53
2022-12-19T03:24:37.856Z,43.87
2022-12-19T03:27:19.921Z,51.63
2022-12-19T03:29:52.252Z,46.87
2022-12-19T03:32:19.064Z,48.17
2022-12-19T03:34:55.104Z,49.83
2022-12-19T03:37:28.137Z,47.87
2022-12-19T03:39:57.027Z,45.20
2022-12-19T03:42:45.544Z,41.97
2022-12-19T03:45:12.850Z,45.13
2022-12-19T03:47:42.232Z,45.97
2022-12-19T03:50:09.119Z,47.03
2022-12-19T03:52:54.274Z,47.33
2022-12-19T03:55:36.340Z,44.47
2022-12-19T03:58:09.686Z,48.00
2022-12-19T04:00:37.906Z,47.17
2022-12-19T04:03:04.778Z,47.97
2022-12-19T04:05:31.564Z,42.93
2022-12-19T04:08:00.833Z,50.77
2022-12-19T04:10:27.620Z,52.67
2022-12-19T04:12:58.172Z,46.17
2022-12-19T04:15:54.210Z,45.57
2022-12-19T04:18:21.072Z,44.60
2022-12-19T04:20:55.368Z,49.93
2022-12-19T04:23:28.718Z,51.07
2022-12-19T04:25:59.559Z,52.50
2022-12-19T04:28:34.836Z,48.93
2022-12-19T04:31:01.641Z,46.63
2022-12-19T04:33:28.380Z,50.20
2022-12-19T04:35:55.138Z,45.67
2022-12-19T04:38:22.190Z,46.27
2022-12-19T04:40:51.617Z,52.97
2022-12-19T04:43:18.380Z,47.57
2022-12-19T04:45:45.173Z,44.67
2022-12-19T04:48:12.076Z,44.33
2022-12-19T04:50:41.280Z,51.63
2022-12-19T04:53:10.293Z,49.63
2022-12-19T04:55:41.273Z,48.00
2022-12-19T04:58:08.027Z,48.50
2022-12-19T05:00:42.114Z,49.00
2022-12-19T05:03:09.293Z,50.93
2022-12-19T05:05:36.083Z,52.50
2022-12-19T05:08:02.809Z,55.30
2022-12-19T05:10:29.555Z,53.33
2022-12-19T05:12:58.799Z,58.60
2022-12-19T05:15:25.540Z,49.90
2022-12-19T05:17:52.263Z,51.67
2022-12-19T05:20:19.038Z,48.63
2022-12-19T05:22:45.775Z,55.87
2022-12-19T05:25:12.673Z,51.00
2022-12-19T05:27:39.416Z,61.20
2022-12-19T05:30:06.813Z,55.00
2022-12-19T05:32:34.830Z,50.73
2022-12-19T05:35:01.572Z,52.30
2022-12-19T05:37:30.827Z,58.73
2022-12-19T05:39:57.591Z,49.73
2022-12-19T05:42:25.599Z,53.10
2022-12-19T05:44:54.619Z,50.90
2022-12-19T05:47:21.418Z,52.83
2022-12-19T05:49:50.678Z,49.80
2022-12-19T05:52:17.441Z,56.30
2022-12-19T05:54:46.523Z,56.77
2022-12-19T05:57:13.245Z,54.63
2022-12-19T05:59:42.430Z,61.33
2022-12-19T06:02:09.230Z,53.43
2022-12-19T06:04:36.027Z,56.83
2022-12-19T06:07:03.032Z,53.77
2022-12-19T06:09:29.863Z,55.90
2022-12-19T06:11:56.636Z,50.40
2022-12-19T06:14:23.420Z,53.23
2022-12-19T06:16:51.433Z,51.83
2022-12-19T06:19:21.008Z,45.67
2022-12-19T06:21:48.611Z,59.30
2022-12-19T06:24:15.742Z,50.47
2022-12-19T06:26:42.724Z,50.90
2022-12-19T06:29:14.232Z,54.37
2022-12-19T06:31:40.997Z,51.47
2022-12-19T06:34:10.580Z,55.43
2022-12-19T06:36:37.457Z,50.07
2022-12-19T06:39:04.433Z,49.70
2022-12-19T06:41:49.493Z,50.73
2022-12-19T06:44:17.857Z,57.37
2022-12-19T06:46:44.725Z,54.03
2022-12-19T06:49:11.706Z,60.37
2022-12-19T06:51:38.539Z,54.47
2022-12-19T06:54:05.477Z,51.87
2022-12-19T06:56:39.227Z,58.13
2022-12-19T06:59:06.519Z,60.27
2022-12-19T07:01:57.167Z,52.10
2022-12-19T07:04:29.610Z,60.70
2022-12-19T07:06:56.759Z,52.87
2022-12-19T07:09:25.682Z,44.47
2022-12-19T07:11:52.471Z,53.37
2022-12-19T07:14:19.303Z,53.57
2022-12-19T07:16:48.663Z,46.23
2022-12-19T07:19:15.486Z,49.70
2022-12-19T07:21:44.806Z,59.17
2022-12-19T07:24:12.168Z,51.97
2022-12-19T07:26:38.982Z,51.57
2022-12-19T07:29:05.837Z,55.70
2022-12-19T07:31:35.107Z,50.23
2022-12-19T07:34:01.976Z,55.97
2022-12-19T07:36:29.253Z,56.73
2022-12-19T07:38:56.072Z,52.33
2022-12-19T07:41:22.915Z,46.83
2022-12-19T07:43:49.733Z,49.27
2022-12-19T07:46:16.668Z,53.43
2022-12-19T07:48:43.527Z,56.63
2022-12-19T07:51:12.535Z,59.30
2022-12-19T07:53:39.379Z,47.77
2022-12-19T07:56:06.624Z,54.60
2022-12-19T07:58:33.605Z,57.80
2022-12-19T08:01:03.677Z,54.57
2022-12-19T08:03:31.815Z,52.53
2022-12-19T08:06:02.508Z,62.93
2022-12-19T08:08:30.480Z,53.17
2022-12-19T08:11:27.376Z,49.70
2022-12-19T08:13:56.905Z,49.30
2022-12-19T08:16:27.274Z,50.37
2022-12-19T08:18:54.077Z,55.33
2022-12-19T08:21:23.435Z,50.47
2022-12-19T08:23:52.130Z,51.57
2022-12-19T08:26:25.473Z,46.83
2022-12-19T08:28:58.899Z,48.80
2022-12-19T08:31:27.330Z,49.07
2022-12-19T08:33:55.002Z,53.00
2022-12-19T08:36:23.971Z,49.37
2022-12-19T08:38:52.047Z,52.77
2022-12-19T08:41:21.162Z,49.33
2022-12-19T08:43:56.303Z,53.40
2022-12-19T08:46:23.443Z,51.53
2022-12-19T08:48:52.971Z,47.40
2022-12-19T08:51:22.405Z,47.80
2022-12-19T08:53:49.261Z,45.47
2022-12-19T08:56:20.776Z,48.97
2022-12-19T08:58:50.672Z,47.17
2022-12-19T09:01:20.761Z,51.97
2022-12-19T09:04:09.603Z,54.27
2022-12-19T09:06:34.966Z,51.73
2022-12-19T09:09:04.806Z,49.73
2022-12-19T09:11:31.809Z,54.40
2022-12-19T09:13:58.723Z,49.90
2022-12-19T09:16:26.732Z,49.07
2022-12-19T09:18:58.837Z,61.17
2022-12-19T09:21:27.383Z,53.93
2022-12-19T09:23:55.291Z,50.17
2022-12-19T09:26:23.192Z,53.47
2022-12-19T09:28:50.977Z,55.17
2022-12-19T09:31:19.861Z,54.73
2022-12-19T09:33:46.956Z,55.90
2022-12-19T09:36:18.981Z,52.63
2022-12-19T09:38:45.903Z,52.47
2022-12-19T09:41:34.506Z,56.37
2022-12-19T09:44:20.178Z,52.37
2022-12-19T09:46:51.076Z,53.67
2022-12-19T09:49:29.853Z,52.80
2022-12-19T09:52:17.104Z,53.30
2022-12-19T09:55:02.466Z,49.33
2022-12-19T09:58:08.459Z,62.37
2022-12-19T10:00:40.977Z,49.23
2022-12-19T10:03:16.855Z,49.17
2022-12-19T10:05:45.603Z,59.30
2022-12-19T10:08:56.959Z,53.30
2022-12-19T10:12:45.399Z,52.00
2022-12-19T10:15:00.208Z,46.93
2022-12-19T10:17:48.087Z,50.03
2022-12-19T10:20:27.903Z,48.27
2022-12-19T10:23:12.701Z,46.70
2022-12-19T10:25:55.217Z,49.03
2022-12-19T10:29:02.414Z,48.03
2022-12-19T10:31:47.539Z,49.30
2022-12-19T10:34:50.018Z,48.43
2022-12-19T10:37:42.373Z,48.37
2022-12-19T10:40:28.322Z,48.50
2022-12-19T10:43:15.295Z,44.90
2022-12-19T10:45:57.651Z,47.17
2022-12-19T10:48:30.395Z,48.80
2022-12-19T10:51:06.170Z,44.00
2022-12-19T10:53:36.796Z,49.53
2022-12-19T10:56:13.245Z,46.57
2022-12-19T10:58:43.110Z,51.07
2022-12-19T11:01:16.953Z,47.50
2022-12-19T11:03:46.987Z,48.10
2022-12-19T11:06:40.733Z,42.83
2022-12-19T11:09:20.894Z,47.03
2022-12-19T11:14:25.822Z,42.93
2022-12-19T11:20:22.274Z,48.10
2022-12-19T11:26:52.010Z,40.20
2022-12-19T11:29:19.697Z,43.90
2022-12-19T11:29:30.013Z,43.03
2022-12-19T11:30:05.359Z,46.60
2022-12-19T11:30:08.656Z,47.87
2022-12-19T11:34:26.999Z,42.30
2022-12-19T11:37:24.722Z,53.13
2022-12-19T11:40:01.435Z,48.30
2022-12-19T11:42:35.763Z,41.03
2022-12-19T11:45:24.895Z,44.63
2022-12-19T11:48:03.126Z,42.53
2022-12-19T11:50:35.445Z,47.00
2022-12-19T11:53:29.326Z,45.47
2022-12-19T11:55:58.554Z,41.23
2022-12-19T11:58:26.524Z,43.23
2022-12-19T12:00:59.042Z,43.97
2022-12-19T12:04:02.570Z,43.57
2022-12-19T12:06:34.750Z,41.97
2022-12-19T12:11:29.087Z,42.13
2022-12-19T12:20:04.369Z,48.70
2022-12-19T12:26:30.972Z,45.97
2022-12-19T12:31:05.337Z,43.93
2022-12-19T12:31:15.936Z,38.57
2022-12-19T12:31:53.740Z,40.23
2022-12-19T12:31:57.250Z,45.10
2022-12-19T12:35:32.824Z,41.80
2022-12-19T12:38:26.277Z,40.57
2022-12-19T12:41:00.709Z,44.30
2022-12-19T12:43:52.224Z,42.70
2022-12-19T12:46:30.192Z,46.20
2022-12-19T12:49:04.743Z,45.27
2022-12-19T12:51:34.583Z,45.47
2022-12-19T12:54:09.589Z,44.50
2022-12-19T12:56:36.582Z,50.07
2022-12-19T12:59:22.736Z,47.40
2022-12-19T13:01:56.099Z,43.83
2022-12-19T13:04:30.892Z,45.07
2022-12-19T13:07:35.701Z,46.93
2022-12-19T13:10:19.064Z,54.13
2022-12-19T13:13:14.281Z,45.77
2022-12-19T13:15:43.613Z,48.33
2022-12-19T13:18:33.608Z,52.63
2022-12-19T13:21:03.950Z,47.93
2022-12-19T13:23:34.966Z,50.60
2022-12-19T13:26:01.813Z,44.33
2022-12-19T13:28:28.968Z,44.53
2022-12-19T13:31:18.885Z,49.57
2022-12-19T13:33:56.443Z,49.70
2022-12-19T13:39:59.352Z,46.37
2022-12-19T13:40:08.739Z,43.27
2022-12-19T13:42:55.082Z,45.07
2022-12-19T13:45:36.964Z,45.60
2022-12-19T13:48:05.392Z,46.67
2022-12-19T13:50:40.690Z,47.57
2022-12-19T13:53:22.500Z,44.37
2022-12-19T13:55:49.513Z,45.43
2022-12-19T13:58:28.426Z,55.30
2022-12-19T14:01:01.312Z,50.67
2022-12-19T14:03:37.639Z,49.40
2022-12-19T14:06:30.196Z,47.20
2022-12-19T14:11:27.263Z,50.97
2022-12-19T14:13:47.233Z,51.90
2022-12-19T14:15:13.735Z,50.77
2022-12-19T14:17:40.895Z,47.53
2022-12-19T14:22:02.097Z,49.67
2022-12-19T14:23:10.253Z,50.03
2022-12-19T14:28:22.145Z,49.07
2022-12-19T14:28:42.139Z,49.47
2022-12-19T14:31:12.361Z,49.67
2022-12-19T14:34:11.072Z,54.07
2022-12-19T14:36:33.305Z,55.33
2022-12-19T14:39:22.942Z,56.87
2022-12-19T14:42:09.367Z,52.50
2022-12-19T14:53:08.677Z,51.63
2022-12-19T14:54:12.860Z,53.90
2022-12-19T14:54:21.444Z,56.33
2022-12-19T14:54:52.714Z,51.67
2022-12-19T14:56:45.134Z,50.77
2022-12-19T14:59:04.627Z,53.13
2022-12-19T15:01:33.255Z,49.37
2022-12-19T15:04:53.141Z,54.07
2022-12-19T15:07:11.815Z,56.73
2022-12-19T15:11:03.010Z,55.70
2022-12-19T15:14:48.562Z,53.00
2022-12-19T15:16:03.420Z,51.07
2022-12-19T15:18:35.598Z,57.50
2022-12-19T15:21:04.311Z,57.23
2022-12-19T15:23:33.812Z,54.90
2022-12-19T15:26:06.153Z,60.83
2022-12-19T15:28:43.096Z,61.13
2022-12-19T15:31:29.811Z,54.27
2022-12-19T15:36:43.711Z,65.83
2022-12-19T15:39:10.523Z,59.60
2022-12-19T15:41:37.372Z,55.73
2022-12-19T15:44:30.946Z,60.50
2022-12-19T15:46:58.502Z,57.90
2022-12-19T15:49:25.414Z,62.47
2022-12-19T15:51:54.455Z,53.37
2022-12-19T15:57:10.617Z,61.93
2022-12-19T15:59:39.268Z,64.00
2022-12-19T16:02:42.702Z,61.93
2022-12-19T16:05:16.954Z,54.97
2022-12-19T16:07:43.846Z,60.73
2022-12-19T16:10:13.830Z,57.67
2022-12-19T16:12:48.304Z,57.53
2022-12-19T16:15:26.181Z,57.70
2022-12-19T16:17:56.086Z,59.03
2022-12-19T16:20:29.298Z,58.40
2022-12-19T16:22:56.194Z,62.60
2022-12-19T16:25:24.101Z,64.87
2022-12-19T16:27:55.306Z,60.43
2022-12-19T16:30:24.499Z,64.67
2022-12-19T16:32:56.862Z,57.80
2022-12-19T16:36:03.196Z,64.37
2022-12-19T16:38:14.705Z,71.93
2022-12-19T16:40:41.636Z,65.60
2022-12-19T16:43:38.072Z,58.13
2022-12-19T16:46:05.966Z,66.60
2022-12-19T16:48:35.660Z,63.93
2022-12-19T16:51:02.631Z,59.37
2022-12-19T16:53:29.610Z,61.93
2022-12-19T16:55:56.638Z,56.50
2022-12-19T16:58:26.627Z,58.13
2022-12-19T17:00:56.140Z,65.17
2022-12-19T17:03:36.405Z,63.37
2022-12-19T17:06:05.990Z,67.20
2022-12-19T17:08:32.892Z,62.23
2022-12-19T17:10:59.761Z,61.83
2022-12-19T17:13:26.747Z,65.33
2022-12-19T17:15:58.231Z,65.70
2022-12-19T17:18:26.617Z,63.20
2022-12-19T17:20:56.063Z,59.03
2022-12-19T17:23:24.027Z,61.50
2022-12-19T17:25:51.058Z,60.93
2022-12-19T17:28:18.023Z,65.03
2022-12-19T17:30:49.789Z,64.50
2022-12-19T17:33:16.775Z,66.20
2022-12-19T17:35:45.746Z,65.30
2022-12-19T17:38:16.089Z,58.97
2022-12-19T17:40:43.210Z,64.93
2022-12-19T17:43:11.907Z,67.07
2022-12-19T17:45:38.856Z,65.47
2022-12-19T17:48:07.856Z,68.07
2022-12-19T17:50:39.183Z,61.67
2022-12-19T17:53:13.571Z,68.87
2022-12-19T17:55:42.995Z,69.97
2022-12-19T17:58:13.071Z,68.53
2022-12-19T18:00:42.180Z,61.57
2022-12-19T18:03:21.738Z,64.80
2022-12-19T18:05:51.511Z,66.70
2022-12-19T18:08:32.153Z,69.53
2022-12-19T18:11:03.162Z,68.53
2022-12-19T18:13:30.587Z,66.17
2022-12-19T18:16:01.585Z,71.83
2022-12-19T18:18:34.161Z,69.73
2022-12-19T18:21:01.068Z,64.40
2022-12-19T18:23:30.937Z,63.37
2022-12-19T18:26:02.372Z,68.10
2022-12-19T18:28:29.816Z,70.03
2022-12-19T18:31:04.263Z,64.60
2022-12-19T18:33:37.142Z,66.37
2022-12-19T18:36:07.114Z,69.63
2022-12-19T18:38:33.947Z,70.60
2022-12-19T18:41:01.395Z,72.63
2022-12-19T18:43:33.609Z,65.23
2022-12-19T18:46:00.417Z,65.17
2022-12-19T18:48:31.101Z,69.63
2022-12-19T18:51:00.661Z,71.50
2022-12-19T18:53:35.297Z,67.53
2022-12-19T18:56:03.335Z,70.63
2022-12-19T18:58:30.332Z,67.87
2022-12-19T19:01:00.612Z,68.03
2022-12-19T19:03:32.715Z,66.00
2022-12-19T19:05:59.719Z,65.87
2022-12-19T19:08:31.865Z,69.53
2022-12-19T19:10:58.821Z,73.77
2022-12-19T19:13:26.074Z,68.77
2022-12-19T19:15:56.502Z,71.30
2022-12-19T19:18:27.277Z,76.07
2022-12-19T19:21:00.454Z,68.43
2022-12-19T19:23:36.738Z,72.97
2022-12-19T19:26:03.605Z,69.07
2022-12-19T19:28:30.403Z,65.03
2022-12-19T19:30:57.723Z,70.17
2022-12-19T19:33:31.697Z,73.13
2022-12-19T19:36:02.570Z,71.97
2022-12-19T19:38:35.049Z,69.43
2022-12-19T19:41:04.518Z,68.27
2022-12-19T19:43:35.671Z,73.80
2022-12-19T19:46:02.710Z,74.93
2022-12-19T19:48:29.770Z,68.93
2022-12-19T19:50:56.910Z,76.37
2022-12-19T19:53:23.740Z,73.23
2022-12-19T19:56:03.973Z,73.57
2022-12-19T19:58:30.804Z,73.37
2022-12-19T20:00:57.882Z,68.30
2022-12-19T20:03:25.086Z,75.67
2022-12-19T20:05:59.653Z,76.97
2022-12-19T20:08:33.623Z,80.50
2022-12-19T20:11:05.678Z,67.77
2022-12-19T20:13:35.374Z,74.07
2022-12-19T20:16:12.767Z,77.95
2022-12-19T20:18:40.140Z,75.90
2022-12-19T20:21:13.234Z,68.30
2022-12-19T20:23:40.809Z,73.30
2022-12-19T20:26:11.406Z,71.60
2022-12-19T20:28:43.964Z,76.67
2022-12-19T20:31:15.030Z,79.67
2022-12-19T20:33:41.830Z,76.63
2022-12-19T20:36:10.025Z,66.93
2022-12-19T20:38:36.997Z,70.53
2022-12-19T20:41:03.992Z,65.30
2022-12-19T20:43:31.107Z,70.37
2022-12-19T20:46:06.041Z,70.00
2022-12-19T20:48:33.016Z,79.27
2022-12-19T20:51:02.430Z,68.10
2022-12-19T20:53:32.791Z,73.67
2022-12-19T20:56:00.239Z,71.20
2022-12-19T20:58:27.508Z,69.53
2022-12-19T21:00:58.367Z,67.37
2022-12-19T21:03:28.533Z,68.03
2022-12-19T21:05:57.126Z,71.60
2022-12-19T21:08:24.460Z,65.20
2022-12-19T21:10:51.505Z,69.40
2022-12-19T21:13:18.441Z,74.60
2022-12-19T21:15:45.364Z,82.03
2022-12-19T21:18:12.263Z,69.07
2022-12-19T21:20:41.332Z,72.43
2022-12-19T21:23:08.239Z,69.40
2022-12-19T21:25:37.167Z,70.43
2022-12-19T21:28:04.095Z,69.63
2022-12-19T21:30:30.914Z,72.90
2022-12-19T21:32:59.895Z,73.23
2022-12-19T21:35:26.727Z,73.80
2022-12-19T21:37:53.583Z,69.23
2022-12-19T21:40:20.574Z,76.10
2022-12-19T21:42:49.570Z,75.00
2022-12-19T21:45:16.666Z,65.90
2022-12-19T21:47:46.036Z,76.27
2022-12-19T21:50:14.562Z,66.77
2022-12-19T21:52:44.630Z,75.00
2022-12-19T21:55:11.489Z,75.13
2022-12-19T21:57:41.730Z,74.37
2022-12-19T22:00:10.040Z,67.40
2022-12-19T22:02:37.163Z,71.80
2022-12-19T22:05:09.672Z,71.07
2022-12-19T22:07:36.566Z,58.27
2022-12-19T22:10:06.364Z,66.83
2022-12-19T22:12:33.179Z,70.77
2022-12-19T22:15:04.752Z,75.20
2022-12-19T22:17:36.379Z,68.80
2022-12-19T22:20:03.415Z,71.40
2022-12-19T22:22:30.281Z,73.10
2022-12-19T22:24:59.606Z,63.47
2022-12-19T22:27:26.423Z,64.77
2022-12-19T22:29:53.265Z,69.93
2022-12-19T22:32:20.140Z,72.30
2022-12-19T22:34:48.296Z,69.10
2022-12-19T22:37:20.361Z,73.27
2022-12-19T22:39:47.229Z,69.27
2022-12-19T22:42:14.046Z,68.47
2022-12-19T22:44:45.522Z,65.93
2022-12-19T22:47:12.379Z,70.23
2022-12-19T22:49:39.244Z,68.80
2022-12-19T22:52:06.099Z,69.30
2022-12-19T22:54:32.959Z,67.53
2022-12-19T22:56:59.763Z,65.90
2022-12-19T22:59:26.614Z,69.00
2022-12-19T23:01:54.223Z,66.47
2022-12-19T23:04:25.861Z,64.80
2022-12-19T23:06:55.223Z,59.57
2022-12-19T23:09:22.065Z,63.97
2022-12-19T23:11:51.440Z,65.33
2022-12-19T23:14:18.708Z,69.67
2022-12-19T23:16:45.624Z,64.47
2022-12-19T23:19:13.225Z,65.33
2022-12-19T23:21:40.155Z,69.27
2022-12-19T23:24:09.490Z,70.57
2022-12-19T23:26:36.953Z,65.83
2022-12-19T23:29:12.012Z,71.13
2022-12-19T23:31:46.192Z,66.67
2022-12-19T23:34:15.788Z,70.00
2022-12-19T23:37:10.310Z,65.97
2022-12-19T23:39:32.166Z,59.80
2022-12-19T23:42:01.473Z,63.83
2022-12-19T23:44:28.620Z,63.20
2022-12-19T23:47:02.323Z,68.97
2022-12-19T23:49:32.679Z,67.80
2022-12-19T23:51:59.535Z,62.67
2022-12-19T23:54:26.401Z,74.80
2022-12-19T23:56:55.764Z,69.30
2022-12-19T23:59:23.074Z,68.27
